createdAt,value
2019-06-07T00:00:15.526Z,14.10
2019-06-07T00:02:34.605Z,14.10
2019-06-07T00:05:03.131Z,14.00
2019-06-07T00:07:31.408Z,14.10
2019-06-07T00:09:59.744Z,13.90
2019-06-07T00:12:28.008Z,13.90
2019-06-07T00:14:56.287Z,14.00
2019-06-07T00:17:25.234Z,13.90
2019-06-07T00:19:53.493Z,13.70
2019-06-07T00:22:32.364Z,13.70
2019-06-07T00:24:51.739Z,13.80
2019-06-07T00:27:22.328Z,13.80
2019-06-07T00:29:50.019Z,13.80
2019-06-07T00:32:21.729Z,13.60
2019-06-07T00:34:48.343Z,13.60
2019-06-07T00:37:19.799Z,13.70
2019-06-07T00:39:59.451Z,13.60
2019-06-07T00:42:18.610Z,13.60
2019-06-07T00:44:46.593Z,13.60
2019-06-07T00:47:16.425Z,13.70
2019-06-07T00:49:44.840Z,13.90
2019-06-07T00:53:10.693Z,13.80
2019-06-07T00:54:43.208Z,13.60
2019-06-07T00:57:12.493Z,13.60
2019-06-07T00:59:41.542Z,13.60
2019-06-07T01:02:09.807Z,13.70
2019-06-07T01:04:38.060Z,13.70
2019-06-07T01:07:06.671Z,13.80
2019-06-07T01:09:34.927Z,13.80
2019-06-07T01:12:03.186Z,13.70
2019-06-07T01:14:31.468Z,13.60
2019-06-07T01:17:22.201Z,13.60
2019-06-07T01:19:29.707Z,13.70
2019-06-07T01:21:57.991Z,13.60
2019-06-07T01:24:27.589Z,13.50
2019-06-07T01:26:57.300Z,13.60
2019-06-07T01:29:30.310Z,13.60
2019-06-07T01:31:55.585Z,13.60
2019-06-07T01:34:26.556Z,13.40
2019-06-07T01:36:53.859Z,13.30
2019-06-07T01:39:24.681Z,13.20
2019-06-07T01:41:52.243Z,13.30
2019-06-07T01:44:22.757Z,13.30
2019-06-07T01:46:50.517Z,13.30
2019-06-07T01:49:19.670Z,13.30
2019-06-07T01:51:48.238Z,13.20
2019-06-07T01:56:46.547Z,13.40
2019-06-07T01:59:14.838Z,13.50
2019-06-07T02:01:43.254Z,13.40
2019-06-07T02:04:11.512Z,13.50
2019-06-07T02:06:39.807Z,13.50
2019-06-07T02:09:08.145Z,13.40
2019-06-07T02:11:36.484Z,13.40
2019-06-07T02:14:05.613Z,13.40
2019-06-07T02:16:33.872Z,13.20
2019-06-07T02:19:03.707Z,13.20
2019-06-07T02:21:34.351Z,13.20
2019-06-07T02:24:02.124Z,13.20
2019-06-07T02:26:32.520Z,13.40
2019-06-07T02:29:00.396Z,13.30
2019-06-07T02:31:36.267Z,13.40
2019-06-07T02:33:58.647Z,13.30
2019-06-07T02:36:30.550Z,13.40
2019-06-07T02:38:57.001Z,13.30
2019-06-07T02:41:28.183Z,13.30
2019-06-07T02:43:55.374Z,13.40
2019-06-07T02:46:35.099Z,13.30
2019-06-07T02:48:55.937Z,13.30
2019-06-07T02:51:27.209Z,13.30
2019-06-07T02:53:54.356Z,13.40
2019-06-07T02:56:52.470Z,13.20
2019-06-07T02:58:52.612Z,13.30
2019-06-07T03:01:20.880Z,13.20
2019-06-07T03:03:49.153Z,13.30
2019-06-07T03:06:17.432Z,13.20
2019-06-07T03:08:46.929Z,13.40
2019-06-07T03:11:15.753Z,13.30
2019-06-07T03:13:46.314Z,13.20
2019-06-07T03:16:18.477Z,13.10
2019-06-07T03:18:57.924Z,13.10
2019-06-07T03:21:29.359Z,13.10
2019-06-07T03:23:57.860Z,13.10
2019-06-07T03:26:27.686Z,13.00
2019-06-07T03:28:56.804Z,13.00
2019-06-07T03:31:31.687Z,13.00
2019-06-07T03:33:58.409Z,12.90
2019-06-07T03:36:27.510Z,13.00
2019-06-07T03:38:56.227Z,13.00
2019-06-07T03:41:24.496Z,13.00
2019-06-07T03:43:52.785Z,13.00
2019-06-07T03:46:21.047Z,13.00
2019-06-07T03:48:49.343Z,13.20
2019-06-07T03:51:25.134Z,13.20
2019-06-07T03:53:47.589Z,13.10
2019-06-07T03:56:16.206Z,13.10
2019-06-07T03:58:49.516Z,13.10
2019-06-07T04:01:14.770Z,13.20
2019-06-07T04:03:50.970Z,13.20
2019-06-07T04:06:13.035Z,13.20
2019-06-07T04:08:42.255Z,13.30
2019-06-07T04:11:10.860Z,13.30
2019-06-07T04:13:42.905Z,13.40
2019-06-07T04:16:09.117Z,13.30
2019-06-07T04:18:40.813Z,13.20
2019-06-07T04:21:07.383Z,13.30
2019-06-07T04:23:40.509Z,13.30
2019-06-07T04:26:06.269Z,13.30
2019-06-07T04:29:27.407Z,13.40
2019-06-07T04:31:04.549Z,13.40
2019-06-07T04:33:37.035Z,13.30
2019-06-07T04:36:02.824Z,13.40
2019-06-07T04:38:32.723Z,13.50
2019-06-07T04:41:01.424Z,13.40
2019-06-07T04:43:31.024Z,13.50
2019-06-07T04:45:59.619Z,13.50
2019-06-07T04:48:47.335Z,13.50
2019-06-07T04:51:15.663Z,13.50
2019-06-07T04:53:43.983Z,13.60
2019-06-07T04:56:12.421Z,13.60
2019-06-07T04:58:41.480Z,13.70
2019-06-07T05:01:26.261Z,13.70
2019-06-07T05:03:44.059Z,13.70
2019-06-07T05:06:09.782Z,13.80
2019-06-07T05:08:40.591Z,13.80
2019-06-07T05:11:08.053Z,13.80
2019-06-07T05:13:39.013Z,13.80
2019-06-07T05:16:06.293Z,13.80
2019-06-07T05:18:36.222Z,13.70
2019-06-07T05:21:04.625Z,13.70
2019-06-07T05:26:02.896Z,13.70
2019-06-07T05:28:32.559Z,13.70
2019-06-07T05:31:05.154Z,13.70
2019-06-07T05:33:31.808Z,13.70
2019-06-07T05:36:01.188Z,13.80
2019-06-07T05:38:29.544Z,13.80
2019-06-07T05:40:57.847Z,13.80
2019-06-07T05:43:29.330Z,13.90
2019-06-07T05:45:57.647Z,13.80
2019-06-07T05:48:26.823Z,13.90
2019-06-07T05:50:57.459Z,13.90
2019-06-07T05:53:25.307Z,14.00
2019-06-07T05:55:53.741Z,14.00
2019-06-07T05:58:22.360Z,14.00
2019-06-07T06:00:51.041Z,14.10
2019-06-07T06:03:19.562Z,14.10
2019-06-07T06:05:54.485Z,14.20
2019-06-07T06:08:17.807Z,14.20
2019-06-07T06:10:48.637Z,14.30
2019-06-07T06:13:16.072Z,14.30
2019-06-07T06:15:56.392Z,14.40
2019-06-07T06:18:14.480Z,14.50
2019-06-07T06:21:06.851Z,14.60
2019-06-07T06:23:12.843Z,14.60
2019-06-07T06:25:45.027Z,14.70
2019-06-07T06:28:12.933Z,14.70
2019-06-07T06:30:43.765Z,14.80
2019-06-07T06:33:30.822Z,14.90
2019-06-07T06:35:42.452Z,14.90
2019-06-07T06:38:16.753Z,14.90
2019-06-07T06:40:48.950Z,15.00
2019-06-07T06:43:15.751Z,15.10
2019-06-07T06:45:47.866Z,15.10
2019-06-07T06:48:14.023Z,15.20
2019-06-07T06:50:44.402Z,15.20
2019-06-07T06:53:12.432Z,15.30
2019-06-07T06:55:41.500Z,15.40
2019-06-07T06:58:10.164Z,15.40
2019-06-07T07:00:52.553Z,15.40
2019-06-07T07:03:54.184Z,15.40
2019-06-07T07:05:48.631Z,15.50
2019-06-07T07:08:15.185Z,15.50
2019-06-07T07:10:46.629Z,15.60
2019-06-07T07:13:15.802Z,15.60
2019-06-07T07:15:45.345Z,15.50
2019-06-07T07:18:17.012Z,15.50
2019-06-07T07:20:47.489Z,15.50
2019-06-07T07:23:15.314Z,15.60
2019-06-07T07:25:46.201Z,15.60
2019-06-07T07:28:13.591Z,15.60
2019-06-07T07:30:44.912Z,15.60
2019-06-07T07:33:13.528Z,15.70
2019-06-07T07:36:14.030Z,15.60
2019-06-07T07:38:29.026Z,15.90
2019-06-07T07:41:14.427Z,15.90
2019-06-07T07:43:30.107Z,15.90
2019-06-07T07:46:28.057Z,16.00
2019-06-07T07:48:34.458Z,16.00
2019-06-07T07:51:03.393Z,16.10
2019-06-07T07:53:47.903Z,16.00
2019-06-07T07:56:02.514Z,16.10
2019-06-07T07:58:32.227Z,16.10
2019-06-07T08:01:10.315Z,16.20
2019-06-07T08:03:38.544Z,16.40
2019-06-07T08:06:10.600Z,16.40
2019-06-07T08:08:46.311Z,16.40
2019-06-07T08:11:16.632Z,16.40
2019-06-07T08:14:24.520Z,16.40
2019-06-07T08:16:28.746Z,16.40
2019-06-07T08:19:03.588Z,16.50
2019-06-07T08:21:27.581Z,16.80
2019-06-07T08:24:05.430Z,17.00
2019-06-07T08:29:43.799Z,17.30
2019-06-07T08:32:00.922Z,17.10
2019-06-07T08:34:40.194Z,16.80
2019-06-07T08:40:01.802Z,16.70
2019-06-07T08:45:36.089Z,16.70
2019-06-07T08:48:27.529Z,16.70
2019-06-07T08:50:48.046Z,16.70
2019-06-07T08:53:16.307Z,16.70
2019-06-07T08:55:44.643Z,16.60
2019-06-07T08:58:23.245Z,16.60
2019-06-07T09:00:53.083Z,16.50
2019-06-07T09:03:21.592Z,16.70
2019-06-07T09:05:49.849Z,16.60
2019-06-07T09:08:29.738Z,16.70
2019-06-07T09:10:48.148Z,16.70
2019-06-07T09:13:16.429Z,16.70
2019-06-07T09:15:44.772Z,16.70
2019-06-07T09:20:48.029Z,16.80
2019-06-07T09:23:18.175Z,16.80
2019-06-07T09:25:57.324Z,16.80
2019-06-07T09:28:20.317Z,16.80
2019-06-07T09:30:47.445Z,16.80
2019-06-07T09:33:15.707Z,16.80
2019-06-07T09:35:44.864Z,16.80
2019-06-07T09:38:24.864Z,16.80
2019-06-07T09:40:44.584Z,16.80
2019-06-07T09:45:48.455Z,16.90
2019-06-07T09:49:01.393Z,16.90
2019-06-07T09:50:51.674Z,16.80
2019-06-07T09:53:23.708Z,16.90
2019-06-07T09:55:52.124Z,16.90
2019-06-07T10:00:50.385Z,16.90
2019-06-07T10:03:22.537Z,17.00
2019-06-07T10:06:09.777Z,17.10
2019-06-07T10:09:56.833Z,17.00
2019-06-07T10:11:07.181Z,17.10
2019-06-07T10:13:35.504Z,17.10
2019-06-07T10:16:04.799Z,17.20
2019-06-07T10:18:33.365Z,17.40
2019-06-07T10:21:01.636Z,17.40
2019-06-07T10:23:29.961Z,17.40
2019-06-07T10:25:59.348Z,17.50
2019-06-07T10:28:33.125Z,17.60
2019-06-07T10:31:08.858Z,17.60
2019-06-07T10:33:38.653Z,17.80
2019-06-07T10:36:06.917Z,17.90
2019-06-07T10:38:47.557Z,18.10
2019-06-07T10:41:17.509Z,18.40
2019-06-07T10:43:48.258Z,18.50
2019-06-07T10:46:17.832Z,18.50
2019-06-07T10:48:46.519Z,18.50
2019-06-07T10:51:15.059Z,18.60
2019-06-07T10:53:48.654Z,18.70
2019-06-07T10:56:17.002Z,18.60
2019-06-07T10:58:45.373Z,18.70
2019-06-07T11:01:14.436Z,18.80
2019-06-07T11:03:44.526Z,18.80
2019-06-07T11:06:14.082Z,18.70
2019-06-07T11:08:43.596Z,18.70
2019-06-07T11:11:12.245Z,18.80
2019-06-07T11:13:43.841Z,18.90
2019-06-07T11:16:13.041Z,19.10
2019-06-07T11:18:41.841Z,19.30
2019-06-07T11:21:10.215Z,19.70
2019-06-07T11:23:38.564Z,19.90
2019-06-07T11:26:08.236Z,19.90
2019-06-07T11:28:36.817Z,20.10
2019-06-07T11:31:06.243Z,20.10
2019-06-07T11:33:34.810Z,20.20
2019-06-07T11:36:03.369Z,20.20
2019-06-07T11:38:31.705Z,20.20
2019-06-07T11:40:59.964Z,20.40
2019-06-07T11:43:28.256Z,20.40
2019-06-07T11:45:56.520Z,20.40
2019-06-07T11:48:24.778Z,20.30
2019-06-07T11:50:53.056Z,20.30
2019-06-07T11:53:21.319Z,20.30
2019-06-07T11:55:49.600Z,20.40
2019-06-07T11:58:21.602Z,20.40
2019-06-07T12:00:47.900Z,20.50
2019-06-07T12:03:17.909Z,20.70
2019-06-07T12:05:46.159Z,20.90
2019-06-07T12:08:14.457Z,20.80
2019-06-07T12:10:42.959Z,20.90
2019-06-07T12:13:12.495Z,21.00
2019-06-07T12:15:40.922Z,21.30
2019-06-07T12:18:09.287Z,21.50
2019-06-07T12:20:37.640Z,21.60
2019-06-07T12:23:05.910Z,21.50
2019-06-07T12:25:34.167Z,21.70
2019-06-07T12:28:02.443Z,21.70
2019-06-07T12:30:30.692Z,21.50
2019-06-07T12:32:58.976Z,21.20
2019-06-07T12:35:27.261Z,21.10
2019-06-07T12:37:55.532Z,21.00
2019-06-07T12:40:30.123Z,21.30
2019-06-07T12:42:53.821Z,21.70
2019-06-07T12:45:43.973Z,21.60
2019-06-07T12:47:52.501Z,21.90
2019-06-07T12:50:21.798Z,22.30
2019-06-07T12:52:50.033Z,22.30
2019-06-07T12:55:20.295Z,22.00
2019-06-07T12:57:48.285Z,21.70
2019-06-07T13:00:18.224Z,21.30
2019-06-07T13:02:47.400Z,21.10
2019-06-07T13:05:17.734Z,21.00
2019-06-07T13:07:46.246Z,20.90
2019-06-07T13:10:16.067Z,20.80
2019-06-07T13:12:44.356Z,20.80
2019-06-07T13:15:16.120Z,20.80
2019-06-07T13:17:42.608Z,20.70
2019-06-07T13:20:10.968Z,20.60
2019-06-07T13:22:39.247Z,20.50
2019-06-07T13:25:07.783Z,20.50
2019-06-07T13:27:36.060Z,20.50
2019-06-07T13:30:10.386Z,20.40
2019-06-07T13:32:36.138Z,20.40
2019-06-07T13:35:06.155Z,20.40
2019-06-07T13:37:34.424Z,20.40
2019-06-07T13:40:04.323Z,20.40
2019-06-07T13:42:32.680Z,20.30
2019-06-07T13:45:00.944Z,20.30
2019-06-07T13:47:29.221Z,20.30
2019-06-07T13:49:57.816Z,20.30
2019-06-07T13:52:26.099Z,20.20
2019-06-07T13:54:54.360Z,20.20
2019-06-07T13:57:24.260Z,20.10
2019-06-07T13:59:52.782Z,20.00
2019-06-07T14:02:21.233Z,20.00
2019-06-07T14:04:50.198Z,20.00
2019-06-07T14:07:19.052Z,20.00
2019-06-07T14:09:47.802Z,20.00
2019-06-07T14:12:16.079Z,20.00
2019-06-07T14:14:44.335Z,20.00
2019-06-07T14:17:12.588Z,20.00
2019-06-07T14:19:40.867Z,20.10
2019-06-07T14:22:09.147Z,20.00
2019-06-07T14:24:37.411Z,19.90
2019-06-07T14:27:08.529Z,19.80
2019-06-07T14:29:37.565Z,19.60
2019-06-07T14:32:07.030Z,19.50
2019-06-07T14:34:35.793Z,19.50
2019-06-07T14:37:05.170Z,19.40
2019-06-07T14:39:33.658Z,19.40
2019-06-07T14:42:09.472Z,19.30
2019-06-07T14:44:31.948Z,19.30
2019-06-07T14:47:00.489Z,19.30
2019-06-07T14:49:30.408Z,19.30
2019-06-07T14:51:58.905Z,19.20
2019-06-07T14:54:28.110Z,19.20
2019-06-07T14:56:57.361Z,19.20
2019-06-07T14:59:26.217Z,19.10
2019-06-07T15:01:54.999Z,19.00
2019-06-07T15:04:23.675Z,18.80
2019-06-07T15:06:51.969Z,18.60
2019-06-07T15:09:20.301Z,18.40
2019-06-07T15:11:48.600Z,18.20
2019-06-07T15:14:17.065Z,18.10
2019-06-07T15:16:45.409Z,18.00
2019-06-07T15:19:13.786Z,18.00
2019-06-07T15:21:42.111Z,17.90
2019-06-07T15:24:10.394Z,17.90
2019-06-07T15:26:38.803Z,17.80
2019-06-07T15:29:07.111Z,17.70
2019-06-07T15:31:37.162Z,17.70
2019-06-07T15:34:06.538Z,17.50
2019-06-07T15:36:36.403Z,17.40
2019-06-07T15:39:07.216Z,17.40
2019-06-07T15:41:37.193Z,17.40
2019-06-07T15:44:05.641Z,17.50
2019-06-07T15:46:33.916Z,17.40
2019-06-07T15:49:02.620Z,17.40
2019-06-07T15:51:32.286Z,17.30
2019-06-07T15:54:00.909Z,17.30
2019-06-07T15:56:30.387Z,17.20
2019-06-07T15:58:58.985Z,17.10
2019-06-07T16:01:27.334Z,17.20
2019-06-07T16:03:55.655Z,17.10
2019-06-07T16:06:23.917Z,17.10
2019-06-07T16:08:52.176Z,17.10
2019-06-07T16:11:20.492Z,17.00
2019-06-07T16:13:49.091Z,17.10
2019-06-07T16:16:17.422Z,17.10
2019-06-07T16:18:45.724Z,17.00
2019-06-07T16:21:14.058Z,17.10
2019-06-07T16:23:42.328Z,16.90
2019-06-07T16:26:11.358Z,17.00
2019-06-07T16:28:40.477Z,17.00
2019-06-07T16:31:09.306Z,17.00
2019-06-07T16:33:38.792Z,17.00
2019-06-07T16:36:09.149Z,16.60
2019-06-07T16:38:38.060Z,16.50
2019-06-07T16:41:06.688Z,16.40
2019-06-07T16:43:36.437Z,16.30
2019-06-07T16:46:05.260Z,16.40
2019-06-07T16:48:33.546Z,16.40
2019-06-07T16:51:01.865Z,16.40
2019-06-07T16:53:30.221Z,16.40
2019-06-07T16:55:58.554Z,16.40
2019-06-07T16:58:26.900Z,16.30
2019-06-07T17:00:55.291Z,16.30
2019-06-07T17:03:23.628Z,16.30
2019-06-07T17:05:51.972Z,16.30
2019-06-07T17:08:20.244Z,16.30
2019-06-07T17:10:50.136Z,16.40
2019-06-07T17:13:32.367Z,16.40
2019-06-07T17:15:50.068Z,16.40
2019-06-07T17:18:18.406Z,16.50
2019-06-07T17:20:49.442Z,16.40
2019-06-07T17:23:19.612Z,16.40
2019-06-07T17:25:49.665Z,16.40
2019-06-07T17:28:18.298Z,16.40
2019-06-07T17:30:48.070Z,16.40
2019-06-07T17:33:19.274Z,16.40
2019-06-07T17:35:48.535Z,16.40
2019-06-07T17:38:17.161Z,16.30
2019-06-07T17:40:45.437Z,16.20
2019-06-07T17:43:13.692Z,16.30
2019-06-07T17:45:43.345Z,16.20
2019-06-07T17:48:11.955Z,16.20
2019-06-07T17:50:41.639Z,16.20
2019-06-07T17:53:10.288Z,16.10
2019-06-07T17:55:38.570Z,16.10
2019-06-07T17:58:06.823Z,16.00
2019-06-07T18:00:48.650Z,16.00
2019-06-07T18:03:17.521Z,16.00
2019-06-07T18:05:47.139Z,16.00
2019-06-07T18:08:15.624Z,16.00
2019-06-07T18:10:43.947Z,15.90
2019-06-07T18:13:12.211Z,15.90
2019-06-07T18:15:46.428Z,15.90
2019-06-07T18:18:15.972Z,15.90
2019-06-07T18:20:45.128Z,15.90
2019-06-07T18:23:13.869Z,15.90
2019-06-07T18:25:42.212Z,15.80
2019-06-07T18:28:10.543Z,15.80
2019-06-07T18:30:38.832Z,15.80
2019-06-07T18:33:07.087Z,15.80
2019-06-07T18:35:35.720Z,15.70
2019-06-07T18:38:04.572Z,15.70
2019-06-07T18:40:32.843Z,15.70
2019-06-07T18:43:01.168Z,15.70
2019-06-07T18:45:29.444Z,15.60
2019-06-07T18:47:57.846Z,15.70
2019-06-07T18:50:26.395Z,15.70
2019-06-07T18:52:54.931Z,15.70
2019-06-07T18:55:23.317Z,15.70
2019-06-07T18:57:52.180Z,15.60
2019-06-07T19:00:22.364Z,15.60
2019-06-07T19:02:51.879Z,15.60
2019-06-07T19:05:20.566Z,15.60
2019-06-07T19:07:50.338Z,15.70
2019-06-07T19:10:20.318Z,15.70
2019-06-07T19:12:48.899Z,15.60
2019-06-07T19:15:17.961Z,15.60
2019-06-07T19:17:46.359Z,15.60
2019-06-07T19:20:14.763Z,15.60
2019-06-07T19:22:43.338Z,15.70
2019-06-07T19:25:11.719Z,15.70
2019-06-07T19:27:39.990Z,15.70
2019-06-07T19:30:08.403Z,15.70
2019-06-07T19:32:36.660Z,15.70
2019-06-07T19:35:05.652Z,15.70
2019-06-07T19:37:33.943Z,15.60
2019-06-07T19:40:02.746Z,15.70
2019-06-07T19:42:31.434Z,15.60
2019-06-07T19:45:24.600Z,15.50
2019-06-07T19:47:29.757Z,15.50
2019-06-07T19:49:58.775Z,15.50
2019-06-07T19:52:27.466Z,15.50
2019-06-07T19:54:55.802Z,15.50
2019-06-07T19:57:24.095Z,15.50
2019-06-07T19:59:53.344Z,15.50
2019-06-07T20:02:21.795Z,15.50
2019-06-07T20:04:50.061Z,15.50
2019-06-07T20:07:18.341Z,15.50
2019-06-07T20:09:46.615Z,15.50
2019-06-07T20:12:14.963Z,15.50
2019-06-07T20:14:43.264Z,15.60
2019-06-07T20:17:11.544Z,15.50
2019-06-07T20:19:39.960Z,15.60
2019-06-07T20:22:09.555Z,15.60
2019-06-07T20:24:38.282Z,15.60
2019-06-07T20:27:06.579Z,15.60
2019-06-07T20:29:34.924Z,15.60
2019-06-07T20:32:04.425Z,15.60
2019-06-07T20:34:33.003Z,15.60
2019-06-07T20:37:03.903Z,15.60
2019-06-07T20:39:31.259Z,15.50
2019-06-07T20:41:59.645Z,15.50
2019-06-07T20:44:27.898Z,15.50
2019-06-07T20:46:56.239Z,15.50
2019-06-07T20:49:24.593Z,15.50
2019-06-07T20:51:52.861Z,15.50
2019-06-07T20:54:21.450Z,15.50
2019-06-07T20:56:49.779Z,15.50
2019-06-07T20:59:18.056Z,15.40
2019-06-07T21:01:46.356Z,15.40
2019-06-07T21:04:14.743Z,15.50
2019-06-07T21:06:43.032Z,15.40
2019-06-07T21:09:11.413Z,15.50
2019-06-07T21:11:39.672Z,15.50
2019-06-07T21:14:08.245Z,15.50
2019-06-07T21:16:36.607Z,15.50
2019-06-07T21:19:04.880Z,15.60
2019-06-07T21:21:33.240Z,15.60
2019-06-07T21:24:02.503Z,15.50
2019-06-07T21:26:31.136Z,15.50
2019-06-07T21:29:01.041Z,15.60
2019-06-07T21:31:29.705Z,15.60
2019-06-07T21:33:57.984Z,15.60
2019-06-07T21:36:26.260Z,15.60
2019-06-07T21:38:54.520Z,15.60
2019-06-07T21:41:22.784Z,15.50
2019-06-07T21:43:51.139Z,15.60
2019-06-07T21:46:20.674Z,15.60
2019-06-07T21:48:49.480Z,15.60
2019-06-07T21:51:17.869Z,15.60
2019-06-07T21:53:46.153Z,15.50
2019-06-07T21:56:14.539Z,15.60
2019-06-07T21:58:42.825Z,15.40
2019-06-07T22:01:14.422Z,15.10
2019-06-07T22:03:42.872Z,14.90
2019-06-07T22:06:11.766Z,14.80
2019-06-07T22:08:40.253Z,14.70
2019-06-07T22:11:10.100Z,14.70
2019-06-07T22:13:38.578Z,14.70
2019-06-07T22:16:21.273Z,14.70
2019-06-07T22:18:36.821Z,14.70
2019-06-07T22:21:06.320Z,14.70
2019-06-07T22:23:34.834Z,14.70
2019-06-07T22:26:03.175Z,14.70
2019-06-07T22:28:31.450Z,14.70
2019-06-07T22:30:59.709Z,14.80
2019-06-07T22:33:27.964Z,14.80
2019-06-07T22:35:56.246Z,14.80
2019-06-07T22:38:24.508Z,14.80
2019-06-07T22:40:52.769Z,14.80
2019-06-07T22:43:21.040Z,14.80
2019-06-07T22:45:49.297Z,14.80
2019-06-07T22:48:17.586Z,14.80
2019-06-07T22:50:45.931Z,14.70
2019-06-07T22:53:14.188Z,14.70
2019-06-07T22:55:44.128Z,14.70
2019-06-07T22:58:12.431Z,14.80
2019-06-07T23:00:40.800Z,14.70
2019-06-07T23:03:10.427Z,14.70
2019-06-07T23:05:39.104Z,14.80
2019-06-07T23:08:08.683Z,14.70
2019-06-07T23:10:37.438Z,14.70
2019-06-07T23:13:05.720Z,14.80
2019-06-07T23:15:34.145Z,14.70
2019-06-07T23:18:02.401Z,14.70
2019-06-07T23:20:30.693Z,14.70
2019-06-07T23:22:58.950Z,14.70
2019-06-07T23:25:27.224Z,14.80
2019-06-07T23:27:55.573Z,14.80
2019-06-07T23:30:23.842Z,14.80
2019-06-07T23:32:52.116Z,14.80
2019-06-07T23:35:21.130Z,14.60
2019-06-07T23:37:49.823Z,14.60
2019-06-07T23:40:19.326Z,14.40
2019-06-07T23:42:47.848Z,14.30
2019-06-07T23:45:17.406Z,14.30
2019-06-07T23:47:46.680Z,14.30
2019-06-07T23:50:15.697Z,14.20
2019-06-07T23:52:44.124Z,14.20
2019-06-07T23:55:13.770Z,14.10
2019-06-07T23:57:42.457Z,14.00
